createdAt,value
2022-10-12T00:04:59.238Z,10.95
2022-10-12T00:11:21.931Z,13.57
2022-10-12T00:17:28.431Z,9.82
2022-10-12T00:23:38.936Z,12.88
2022-10-12T00:29:43.932Z,10.77
2022-10-12T00:35:52.511Z,11.90
2022-10-12T00:41:59.049Z,10.23
2022-10-12T00:48:04.663Z,11.50
2022-10-12T00:54:12.779Z,15.73
2022-10-12T01:00:21.088Z,13.38
2022-10-12T01:06:24.751Z,12.73
2022-10-12T01:12:28.734Z,13.00
2022-10-12T01:18:36.329Z,11.82
2022-10-12T01:24:52.955Z,10.77
2022-10-12T01:31:01.283Z,12.07
2022-10-12T01:37:23.465Z,12.48
2022-10-12T01:43:34.895Z,15.73
2022-10-12T01:49:39.833Z,12.27
2022-10-12T01:56:00.160Z,15.25
2022-10-12T02:02:33.128Z,12.23
2022-10-12T02:09:05.098Z,12.82
2022-10-12T02:15:10.267Z,13.40
2022-10-12T02:21:14.711Z,11.18
2022-10-12T02:27:32.997Z,10.40
2022-10-12T02:33:39.834Z,14.10
2022-10-12T02:39:45.550Z,11.23
2022-10-12T02:45:50.446Z,17.35
2022-10-12T02:51:53.825Z,10.85
2022-10-12T02:57:57.189Z,11.73
2022-10-12T03:04:02.079Z,14.70
2022-10-12T03:10:05.913Z,12.30
2022-10-12T03:16:10.542Z,11.88
2022-10-12T03:22:25.624Z,12.98
2022-10-12T03:28:45.444Z,12.75
2022-10-12T03:34:57.760Z,13.93
2022-10-12T03:41:06.534Z,13.43
2022-10-12T03:47:10.310Z,11.02
2022-10-12T03:53:13.851Z,13.52
2022-10-12T03:59:43.265Z,13.50
2022-10-12T04:06:01.338Z,11.10
2022-10-12T04:12:08.590Z,13.35
2022-10-12T04:18:13.350Z,16.05
2022-10-12T04:24:40.726Z,16.10
2022-10-12T04:31:03.836Z,12.98
2022-10-12T04:37:09.035Z,13.40
2022-10-12T04:43:12.416Z,11.32
2022-10-12T04:49:17.206Z,10.23
2022-10-12T04:55:23.083Z,12.48
2022-10-12T05:01:27.901Z,16.90
2022-10-12T05:07:32.342Z,20.95
2022-10-12T05:13:40.416Z,15.15
2022-10-12T05:19:47.463Z,21.88
2022-10-12T05:26:00.903Z,14.90
2022-10-12T05:32:12.609Z,17.42
2022-10-12T05:38:18.968Z,13.50
2022-10-12T05:44:25.106Z,13.50
2022-10-12T05:50:31.073Z,14.40
2022-10-12T05:56:40.584Z,16.48
2022-10-12T06:02:47.557Z,19.65
2022-10-12T06:08:55.919Z,18.98
2022-10-12T06:15:01.553Z,15.52
2022-10-12T06:21:31.855Z,18.13
2022-10-12T06:27:32.902Z,16.80
2022-10-12T06:33:38.330Z,21.75
2022-10-12T06:39:53.961Z,19.50
2022-10-12T06:46:02.677Z,26.73
2022-10-12T06:52:07.337Z,24.35
2022-10-12T06:58:13.293Z,28.52
2022-10-12T07:04:22.257Z,23.73
2022-10-12T07:10:28.436Z,22.40
2022-10-12T07:16:34.637Z,22.77
2022-10-12T07:22:42.334Z,19.67
2022-10-12T07:28:45.870Z,22.48
2022-10-12T07:34:51.583Z,30.92
2022-10-12T07:40:58.549Z,47.75
2022-10-12T07:47:03.192Z,35.97
2022-10-12T07:53:07.504Z,32.42
2022-10-12T07:59:13.119Z,32.88
2022-10-12T08:05:17.747Z,33.03
2022-10-12T08:11:23.357Z,27.45
2022-10-12T08:17:29.995Z,33.45
2022-10-12T08:23:33.465Z,28.52
2022-10-12T08:29:36.950Z,26.08
2022-10-12T08:35:42.629Z,27.63
2022-10-12T08:41:51.573Z,38.42
2022-10-12T08:48:01.796Z,33.92
2022-10-12T08:54:08.321Z,30.60
2022-10-12T09:00:18.526Z,27.27
2022-10-12T09:06:26.233Z,33.47
2022-10-12T09:12:42.293Z,28.23
2022-10-12T09:18:48.787Z,31.38
2022-10-12T09:24:54.180Z,26.98
2022-10-12T09:31:07.036Z,32.40
2022-10-12T09:37:15.155Z,30.42
2022-10-12T09:43:21.660Z,31.80
2022-10-12T09:49:34.237Z,28.42
2022-10-12T09:55:39.039Z,26.83
2022-10-12T10:01:43.761Z,32.03
2022-10-12T10:07:50.575Z,23.67
2022-10-12T10:14:01.200Z,21.25
2022-10-12T10:20:06.472Z,20.30
2022-10-12T10:26:23.199Z,28.10
2022-10-12T10:32:30.810Z,17.90
2022-10-12T10:39:03.131Z,21.33
2022-10-12T10:45:24.139Z,23.88
2022-10-12T10:51:43.218Z,19.50
2022-10-12T10:57:50.810Z,15.98
2022-10-12T11:03:59.469Z,13.48
2022-10-12T11:10:20.225Z,15.88
2022-10-12T11:16:29.128Z,16.70
2022-10-12T11:22:39.945Z,9.38
2022-10-12T11:28:45.233Z,10.93
2022-10-12T11:34:52.343Z,15.18
2022-10-12T11:41:19.174Z,12.95
2022-10-12T11:47:33.178Z,15.45
2022-10-12T11:53:44.390Z,14.38
2022-10-12T11:59:53.851Z,12.35
2022-10-12T12:05:58.298Z,15.85
2022-10-12T12:12:13.440Z,7.18
2022-10-12T12:18:19.751Z,9.70
2022-10-12T12:24:25.750Z,7.70
2022-10-12T12:30:39.547Z,10.38
2022-10-12T12:36:51.172Z,8.25
2022-10-12T12:43:13.478Z,6.93
2022-10-12T12:50:10.603Z,10.15
2022-10-12T12:56:47.962Z,8.35
2022-10-12T13:03:31.187Z,7.53
2022-10-12T13:10:06.777Z,7.55
2022-10-12T13:17:23.494Z,7.90
2022-10-12T13:22:55.442Z,6.70
2022-10-12T13:28:59.229Z,8.77
2022-10-12T13:35:07.236Z,5.60
2022-10-12T13:41:13.406Z,8.38
2022-10-12T13:47:24.232Z,7.35
2022-10-12T13:53:28.168Z,6.30
2022-10-12T13:59:35.285Z,7.03
2022-10-12T14:05:44.691Z,9.07
2022-10-12T14:11:48.667Z,8.80
2022-10-12T14:17:54.988Z,8.77
2022-10-12T14:23:59.801Z,9.02
2022-10-12T14:30:06.706Z,8.10
2022-10-12T14:36:15.876Z,8.88
2022-10-12T14:42:23.962Z,9.80
2022-10-12T14:48:27.404Z,14.25
2022-10-12T14:54:32.192Z,14.38
2022-10-12T15:00:36.544Z,11.38
2022-10-12T15:06:40.143Z,11.20
2022-10-12T15:12:45.041Z,14.27
2022-10-12T15:18:48.856Z,8.05
2022-10-12T15:24:52.907Z,12.10
2022-10-12T15:31:16.353Z,10.05
2022-10-12T15:37:20.208Z,12.43
2022-10-12T15:43:23.590Z,10.57
2022-10-12T15:49:28.701Z,11.35
2022-10-12T15:55:32.515Z,9.57
2022-10-12T16:01:36.539Z,10.00
2022-10-12T16:07:41.715Z,13.80
2022-10-12T16:13:51.040Z,15.60
2022-10-12T16:19:57.450Z,10.30
2022-10-12T16:26:04.042Z,14.73
2022-10-12T16:32:07.392Z,25.10
2022-10-12T16:38:10.841Z,25.08
2022-10-12T16:44:15.559Z,15.07
2022-10-12T16:50:19.455Z,14.27
2022-10-12T16:56:22.834Z,16.52
2022-10-12T17:02:28.406Z,14.65
2022-10-12T17:08:34.856Z,15.23
2022-10-12T17:14:38.454Z,13.60
2022-10-12T17:20:43.299Z,20.70
2022-10-12T17:26:47.073Z,27.08
2022-10-12T17:32:50.516Z,22.42
2022-10-12T17:38:55.648Z,15.00
2022-10-12T17:45:26.873Z,19.40
2022-10-12T17:51:30.294Z,15.93
2022-10-12T17:57:35.290Z,32.50
2022-10-12T18:03:40.070Z,21.00
2022-10-12T18:09:43.488Z,19.63
2022-10-12T18:15:48.381Z,19.33
2022-10-12T18:21:51.932Z,18.58
2022-10-12T18:27:55.409Z,24.92
2022-10-12T18:34:00.530Z,11.85
2022-10-12T18:40:04.389Z,13.93
2022-10-12T18:46:08.154Z,13.40
2022-10-12T18:52:12.898Z,7.03
2022-10-12T18:58:16.298Z,21.27
2022-10-12T19:04:22.101Z,12.30
2022-10-12T19:10:28.465Z,10.93
2022-10-12T19:16:54.950Z,11.40
2022-10-12T19:23:04.604Z,10.00
2022-10-12T19:29:19.540Z,13.85
2022-10-12T19:35:32.173Z,13.52
2022-10-12T19:41:46.370Z,12.73
2022-10-12T19:48:04.164Z,13.52
2022-10-12T19:54:15.973Z,17.90
2022-10-12T20:00:39.375Z,16.80
2022-10-12T20:07:01.350Z,16.00
2022-10-12T20:13:09.829Z,16.75
2022-10-12T20:19:17.100Z,14.82
2022-10-12T20:25:34.026Z,12.15
2022-10-12T20:31:39.728Z,16.45
2022-10-12T20:38:20.963Z,12.20
2022-10-12T20:51:31.074Z,11.77
2022-10-12T20:57:34.485Z,11.43
2022-10-12T21:03:39.367Z,10.02
2022-10-12T21:09:42.876Z,8.10
2022-10-12T21:15:51.489Z,11.52
2022-10-12T21:21:56.306Z,10.27
2022-10-12T21:27:59.817Z,10.35
2022-10-12T21:34:04.150Z,11.15
2022-10-12T21:40:10.139Z,11.02
2022-10-12T21:46:14.781Z,9.15
2022-10-12T21:52:18.458Z,9.88
2022-10-12T21:58:23.355Z,10.43
2022-10-12T22:04:27.591Z,11.35
2022-10-12T22:10:30.968Z,11.32
2022-10-12T22:16:36.746Z,11.73
2022-10-12T22:22:40.272Z,9.77
2022-10-12T22:28:43.822Z,12.38
2022-10-12T22:34:48.677Z,11.70
2022-10-12T22:40:55.847Z,9.65
2022-10-12T22:46:59.262Z,7.75
2022-10-12T22:53:03.982Z,8.55
2022-10-12T22:59:07.766Z,11.45
2022-10-12T23:05:11.315Z,11.10
2022-10-12T23:11:16.941Z,8.00
2022-10-12T23:17:20.312Z,11.63
2022-10-12T23:23:23.907Z,9.23
2022-10-12T23:29:38.967Z,10.57
2022-10-12T23:35:42.467Z,6.10
2022-10-12T23:41:46.090Z,8.23
2022-10-12T23:48:01.733Z,12.05
2022-10-12T23:54:11.613Z,8.43
